Time;durP1;ratioP1;P1;durP2;ratioP2;P2;SDS_P1;SDS_P2;PMS_P1;PMS_P2;Temp;Humidity;BMP_temperature;BMP_pressure;BME280_temperature;BME280_humidity;BME280_pressure;Samples;Min_cycle;Max_cycle;Signal;HPM_P1;HPM_P2
2023/05/01 06:45:49;;;;;;;;;;;;;;;11.86;60.58;99699.06;1086782;54;19994;-82
2023/05/01 06:46:50;;;;;;;;;;;;;;;11.86;60.25;99699.06;1086245;54;19949;-83
2023/05/01 06:47:54;;;;;;;;;;;;;;;11.84;60.51;99699.25;1086812;54;20026;-81
2023/05/01 06:50:03;;;;;;;;;;;;;;;11.83;60.48;99702.91;1089525;39;20835;-80
2023/05/01 06:50:27;;;;;;;;;;;;;;;11.86;60.17;99696.38;1085601;54;19946;-79
2023/05/01 06:51:30;;;;;;;;;;;;;;;11.92;60.21;99697.59;1086212;54;19949;-82
2023/05/01 06:52:34;;;;;;;;;;;;;;;11.85;60.33;99700.88;1086476;54;20522;-80
2023/05/01 06:53:47;;;;;;;;;;;;;;;;;;;;;
2023/05/01 07:20:07;;;;;;;;;;;;;;;12.51;58.99;99712.84;1087808;54;19938;-78
2023/05/01 07:21:10;;;;;;;;;;;;;;;12.37;58.65;99717.00;1088591;54;19943;-79
2023/05/01 07:22:14;;;;;;;;;;;;;;;12.27;59.18;99718.00;1089368;38;20601;-80
2023/05/01 07:23:16;;;;;;;;;;;;;;;12.28;59.35;99708.09;1088814;46;19942;-79
2023/05/01 07:24:20;;;;;;;;;;;;;;;12.25;59.06;99703.91;1088937;46;19951;-78
2023/05/01 07:25:21;;;;;;;;;;;;;;;12.26;59.55;99705.59;1089765;46;19958;-75
2023/05/01 07:26:26;;;;;;;;;;;;;;;12.28;59.17;99714.28;1089583;46;19950;-78
2023/05/01 07:27:27;;;;;;;;;;;;;;;12.33;58.71;99711.97;1088844;54;20014;-78
2023/05/01 07:28:31;;;;;;;;;;;;;;;12.31;58.19;99713.97;1089791;38;20250;-79
2023/05/01 07:29:32;;;;;;;;;;;;;;;12.29;58.49;99710.59;1088790;54;19949;-79
2023/05/01 07:30:37;;;;;;;;;;;;;;;12.33;58.33;99711.09;1088524;54;19954;-80
2023/05/01 07:31:40;;;;;;;;;;;;;;;12.31;57.87;99708.59;1089891;46;19964;-81
2023/05/01 07:32:44;;;;;;;;;;;;;;;12.35;57.97;99710.97;1088732;54;19954;-80
2023/05/01 07:33:48;;;;;;;;;;;;;;;12.43;57.98;99711.81;1088644;54;19969;-80
2023/05/01 07:34:49;;;;;;;;;;;;;;;12.47;58.03;99706.94;1088606;46;20001;-83
2023/05/01 07:36:10;;;;;;;;;;;;;;;12.50;57.54;99711.16;1088736;54;19949;-81
2023/05/01 07:40:24;;;;;;;;;;;;;;;12.54;56.90;99707.13;1088010;54;20034;-83
2023/05/01 07:41:25;;;;;;;;;;;;;;;12.48;57.36;99704.13;1088096;54;19950;-83
2023/05/01 07:44:00;;;;;;;;;;;;;;;12.47;57.22;99707.81;1088081;54;19931;-78
2023/05/01 08:14:21;;;;;;;;;;;;;;;13.26;55.30;99695.72;1088145;54;19942;-80
2023/05/01 08:15:42;;;;;;;;;;;;;;;13.20;55.38;99699.06;1087911;54;19977;-80
2023/05/01 08:16:53;;;;;;;;;;;;;;;13.10;55.33;99697.41;1089945;38;20217;-80
2023/05/01 08:17:55;;;;;;;;;;;;;;;13.11;55.41;99699.06;1086449;54;19943;-82
2023/05/01 08:19:00;;;;;;;;;;;;;;;13.06;55.73;99695.22;1086511;54;20050;-80
2023/05/01 08:20:01;;;;;;;;;;;;;;;13.06;55.90;99692.53;1087041;46;19973;-80
2023/05/01 08:21:05;;;;;;;;;;;;;;;13.09;55.84;99694.91;1086752;46;20075;-80
2023/05/01 08:22:06;;;;;;;;;;;;;;;13.12;56.01;99691.88;1086668;46;19943;-80
2023/05/01 08:23:10;;;;;;;;;;;;;;;13.17;55.91;99691.38;1087206;46;19938;-80
2023/05/01 08:24:14;;;;;;;;;;;;;;;13.15;55.66;99690.69;1086809;47;19966;-82
2023/05/01 08:25:16;;;;;;;;;;;;;;;13.13;55.85;99687.34;1087075;54;19942;-82
2023/05/01 08:26:20;;;;;;;;;;;;;;;13.16;55.70;99685.16;1087102;54;20233;-78
2023/05/01 08:27:24;;;;;;;;;;;;;;;13.16;55.76;99693.19;1086740;54;20244;-80
2023/05/01 08:28:25;;;;;;;;;;;;;;;13.14;55.78;99683.66;1086770;54;19942;-80
2023/05/01 08:29:29;;;;;;;;;;;;;;;13.21;55.97;99682.81;1086998;54;19989;-81
2023/05/01 08:30:31;;;;;;;;;;;;;;;13.14;55.40;99679.09;1086947;54;19946;-81
2023/05/01 08:31:36;;;;;;;;;;;;;;;13.15;55.34;99683.47;1087993;46;19942;-84
2023/05/01 08:32:40;;;;;;;;;;;;;;;13.08;55.84;99683.31;1087324;46;19965;-80
2023/05/01 08:33:46;;;;;;;;;;;;;;;13.05;55.78;99685.50;1087173;54;19950;-80
2023/05/01 08:35:28;;;;;;;;;;;;;;;13.03;55.80;99685.69;1087108;54;19966;-84
2023/05/01 08:36:31;;;;;;;;;;;;;;;13.09;55.84;99678.78;1087045;54;20006;-82
2023/05/01 08:37:35;;;;;;;;;;;;;;;13.10;55.17;99681.28;1087113;54;19939;-83
2023/05/01 08:38:39;;;;;;;;;;;;;;;13.13;55.60;99681.97;1086972;54;19961;-81
2023/05/01 08:39:41;;;;;;;;;;;;;;;13.18;55.51;99676.91;1088173;46;19965;-81
2023/05/01 08:40:49;;;;;;;;;;;;;;;13.24;54.92;99682.44;1088413;46;19950;-80
2023/05/01 08:42:05;;;;;;;;;;;;;;;13.35;54.99;99683.94;1087080;54;19945;-82
2023/05/01 08:43:30;;;;;;;;;;;;;;;13.38;54.94;99682.75;1087525;46;19938;-80
2023/05/01 08:44:33;;;;;;;;;;;;;;;13.48;54.51;99683.44;1087135;46;20014;-83
2023/05/01 08:45:38;;;;;;;;;;;;;;;13.56;54.63;99680.72;1087157;46;20268;-84
2023/05/01 08:46:44;;;;;;;;;;;;;;;13.63;54.44;99672.81;1087201;47;19946;-84
2023/05/01 08:47:51;;;;;;;;;;;;;;;13.66;54.25;99683.19;1087747;46;19939;-85
2023/05/01 08:48:56;;;;;;;;;;;;;;;13.60;54.10;99672.31;1087932;46;20014;-83
2023/05/01 08:50:02;;;;;;;;;;;;;;;13.54;54.20;99672.00;1088259;46;19950;-83
2023/05/01 08:51:06;;;;;;;;;;;;;;;13.55;54.42;99678.22;1087020;54;20021;-84
2023/05/01 08:52:09;;;;;;;;;;;;;;;13.53;54.35;99680.22;1087023;54;19962;-84
2023/05/01 08:53:15;;;;;;;;;;;;;;;13.52;54.08;99681.25;1086981;47;19938;-83
2023/05/01 08:54:23;;;;;;;;;;;;;;;13.51;53.64;99688.44;1087798;46;19942;-86
2023/05/01 08:55:28;;;;;;;;;;;;;;;13.48;53.75;99686.13;1087089;54;19953;-84
2023/05/01 08:56:30;;;;;;;;;;;;;;;13.54;54.17;99688.09;1087016;54;19962;-82
2023/05/01 08:57:34;;;;;;;;;;;;;;;13.60;53.60;99694.63;1086818;54;19969;-80
2023/05/01 08:58:38;;;;;;;;;;;;;;;13.67;53.71;99684.88;1087123;46;19939;-82
2023/05/01 08:59:39;;;;;;;;;;;;;;;13.66;53.49;99695.78;1087521;46;19945;-82
2023/05/01 09:00:44;;;;;;;;;;;;;;;13.62;53.58;99684.56;1085931;54;19950;-79
2023/05/01 09:02:24;;;;;;;;;;;;;;;13.61;53.21;99690.94;1085718;54;19947;-82
2023/05/01 09:03:30;;;;;;;;;;;;;;;13.67;53.74;99686.72;1085118;54;20547;-80
2023/05/01 09:04:34;;;;;;;;;;;;;;;13.65;53.50;99683.38;1088690;39;20537;-81
2023/05/01 09:05:36;;;;;;;;;;;;;;;13.64;53.30;99682.56;1086589;54;19952;-79
2023/05/01 09:06:43;;;;;;;;;;;;;;;13.65;53.23;99678.81;1087072;46;19950;-81
2023/05/01 09:07:45;;;;;;;;;;;;;;;13.70;53.67;99689.03;1086390;54;21337;-83
2023/05/01 09:08:49;;;;;;;;;;;;;;;13.71;53.37;99682.66;1085944;54;19946;-79
2023/05/01 09:09:53;;;;;;;;;;;;;;;13.81;53.47;99677.09;1085382;54;20009;-79
2023/05/01 09:10:56;;;;;;;;;;;;;;;13.82;53.39;99673.41;1086823;39;20424;-81
2023/05/01 09:12:02;;;;;;;;;;;;;;;13.86;53.21;99672.03;1086657;54;19949;-80
2023/05/01 09:13:05;;;;;;;;;;;;;;;13.91;53.30;99676.88;1088154;39;20721;-81
2023/05/01 09:14:09;;;;;;;;;;;;;;;13.96;53.21;99682.56;1086111;54;19958;-80
2023/05/01 09:15:11;;;;;;;;;;;;;;;13.96;52.90;99685.25;1085743;54;19950;-82
2023/05/01 09:16:20;;;;;;;;;;;;;;;13.99;53.13;99685.75;1086663;46;19958;-82
2023/05/01 09:17:22;;;;;;;;;;;;;;;14.11;52.90;99688.88;1087620;54;19942;-79
2023/05/01 09:18:26;;;;;;;;;;;;;;;14.17;52.84;99680.09;1088469;46;20010;-80
2023/05/01 09:19:30;;;;;;;;;;;;;;;14.27;52.69;99685.25;1088738;46;19943;-78
2023/05/01 09:20:36;;;;;;;;;;;;;;;14.30;52.31;99687.59;1087865;46;19953;-79
2023/05/01 09:21:37;;;;;;;;;;;;;;;14.25;52.14;99686.44;1087295;46;19943;-79
2023/05/01 09:22:41;;;;;;;;;;;;;;;14.28;52.29;99683.38;1086760;54;19954;-77
2023/05/01 09:23:45;;;;;;;;;;;;;;;14.31;51.85;99683.84;1086794;54;19969;-78
2023/05/01 09:24:47;;;;;;;;;;;;;;;14.30;51.88;99684.06;1087272;54;19942;-77
2023/05/01 09:25:52;;;;;;;;;;;;;;;14.28;52.19;99678.84;1088322;39;20259;-80
2023/05/01 09:27:07;;;;;;;;;;;;;;;14.24;51.90;99676.69;1086430;46;19950;-81
2023/05/01 09:28:08;;;;;;;;;;;;;;;14.23;52.08;99677.72;1085708;54;19943;-80
2023/05/01 09:29:13;;;;;;;;;;;;;;;14.18;52.22;99671.00;1086357;46;19973;-80
2023/05/01 09:30:29;;;;;;;;;;;;;;;14.18;52.16;99673.69;1086038;47;20310;-80
2023/05/01 09:34:46;;;;;;;;;;;;;;;14.43;52.09;99670.88;1088315;39;20185;-78
2023/05/01 09:35:49;;;;;;;;;;;;;;;14.54;51.52;99677.66;1086484;46;19951;-78
2023/05/01 09:36:55;;;;;;;;;;;;;;;14.68;51.79;99673.38;1087186;39;20244;-78
2023/05/01 09:37:59;;;;;;;;;;;;;;;14.73;51.56;99671.00;1085465;46;19983;-78
2023/05/01 09:39:09;;;;;;;;;;;;;;;14.81;51.02;99684.38;1085811;54;20025;-78
2023/05/01 09:40:15;;;;;;;;;;;;;;;14.90;50.58;99674.38;1086428;46;19938;-79
2023/05/01 09:41:21;;;;;;;;;;;;;;;14.85;51.05;99674.09;1086392;54;19943;-78
2023/05/01 09:42:27;;;;;;;;;;;;;;;14.94;50.90;99682.91;1086527;54;21111;-82
2023/05/01 09:43:33;;;;;;;;;;;;;;;14.96;50.40;99676.34;1086117;54;19958;-78
2023/05/01 09:44:45;;;;;;;;;;;;;;;15.11;50.19;99679.03;1086506;54;19958;-78
2023/05/01 09:46:03;;;;;;;;;;;;;;;15.28;50.21;99678.91;1086910;46;19939;-79
2023/05/01 09:47:12;;;;;;;;;;;;;;;15.47;50.11;99679.38;1086503;54;19949;-78
2023/05/01 09:48:16;;;;;;;;;;;;;;;15.57;49.78;99672.66;1086159;54;19946;-79
2023/05/01 09:49:44;;;;;;;;;;;;;;;15.68;49.74;99679.44;1086027;54;19973;-80
2023/05/01 09:50:57;;;;;;;;;;;;;;;15.84;49.66;99672.22;1085514;47;19950;-79
2023/05/01 09:52:16;;;;;;;;;;;;;;;15.73;48.40;99676.16;1086038;54;19943;-79
2023/05/01 09:53:32;;;;;;;;;;;;;;;15.59;48.72;99676.00;1086623;46;19987;-78
2023/05/01 09:54:42;;;;;;;;;;;;;;;15.58;48.65;99671.66;1086238;54;19973;-82
2023/05/01 09:56:02;;;;;;;;;;;;;;;15.52;49.02;99676.94;1086233;54;19958;-81
2023/05/01 09:57:05;;;;;;;;;;;;;;;15.63;49.19;99673.78;1087106;46;19973;-77
2023/05/01 09:58:12;;;;;;;;;;;;;;;15.73;49.10;99668.94;1086152;54;19943;-79
2023/05/01 09:59:29;;;;;;;;;;;;;;;15.73;48.05;99665.38;1086077;54;19962;-79
2023/05/01 10:00:51;;;;;;;;;;;;;;;15.66;48.58;99675.25;1086649;54;19943;-77
2023/05/01 10:01:56;;;;;;;;;;;;;;;15.70;48.98;99674.69;1086890;54;19955;-77
2023/05/01 10:03:16;;;;;;;;;;;;;;;15.67;48.67;99672.41;1086650;54;19951;-78
2023/05/01 10:04:31;;;;;;;;;;;;;;;15.73;49.06;99677.03;1086689;54;19943;-79
2023/05/01 10:05:44;;;;;;;;;;;;;;;15.66;48.58;99677.94;1086663;54;19942;-79
2023/05/01 10:06:48;;;;;;;;;;;;;;;15.84;48.70;99672.22;1088027;39;20884;-79
2023/05/01 10:08:00;;;;;;;;;;;;;;;16.00;48.67;99676.56;1086703;54;19969;-79
2023/05/01 10:09:02;;;;;;;;;;;;;;;16.02;48.42;99677.19;1086814;54;19943;-79
2023/05/01 10:10:20;;;;;;;;;;;;;;;16.08;48.51;99675.59;1086757;54;19949;-77
2023/05/01 10:11:25;;;;;;;;;;;;;;;16.21;48.08;99678.44;1086873;54;20409;-78
2023/05/01 10:12:36;;;;;;;;;;;;;;;16.15;48.29;99663.03;1086982;47;19943;-78
2023/05/01 10:13:38;;;;;;;;;;;;;;;16.26;47.94;99662.50;1086727;54;19950;-79
2023/05/01 10:14:52;;;;;;;;;;;;;;;16.23;47.37;99660.22;1086759;54;19950;-77
2023/05/01 10:15:54;;;;;;;;;;;;;;;16.32;47.83;99664.47;1086643;54;19954;-77
2023/05/01 10:16:58;;;;;;;;;;;;;;;16.32;47.62;99658.22;1087779;46;19942;-81
2023/05/01 10:18:00;;;;;;;;;;;;;;;16.37;47.87;99670.09;1087017;47;19954;-78
2023/05/01 10:19:09;;;;;;;;;;;;;;;16.33;48.01;99663.44;1086552;54;19950;-79
2023/05/01 10:20:19;;;;;;;;;;;;;;;16.35;47.92;99669.47;1086833;46;19957;-77
2023/05/01 10:21:21;;;;;;;;;;;;;;;16.31;47.64;99676.28;1085372;54;19985;-78
2023/05/01 10:22:40;;;;;;;;;;;;;;;16.26;47.32;99659.81;1085906;54;19973;-81
2023/05/01 10:23:41;;;;;;;;;;;;;;;16.41;47.56;99669.72;1086342;47;20694;-80
2023/05/01 10:24:46;;;;;;;;;;;;;;;16.44;47.69;99669.31;1085283;54;19957;-79
2023/05/01 10:25:48;;;;;;;;;;;;;;;16.47;46.98;99671.66;1084684;54;19951;-79
2023/05/01 10:26:53;;;;;;;;;;;;;;;16.49;47.04;99673.13;1084783;54;19946;-78
2023/05/01 10:27:56;;;;;;;;;;;;;;;16.43;46.90;99670.38;1084378;54;19946;-81
2023/05/01 10:29:01;;;;;;;;;;;;;;;16.01;47.65;99662.88;1084624;54;20065;-77
2023/05/01 10:30:05;;;;;;;;;;;;;;;16.17;47.81;99671.75;1085131;54;19947;-77
2023/05/01 10:31:09;;;;;;;;;;;;;;;16.33;47.42;99668.84;1086036;54;19943;-81
2023/05/01 10:32:10;;;;;;;;;;;;;;;16.41;47.21;99673.25;1085440;54;19973;-78
2023/05/01 10:33:15;;;;;;;;;;;;;;;16.53;47.23;99676.28;1085938;47;19965;-79
2023/05/01 10:34:24;;;;;;;;;;;;;;;16.54;47.21;99672.53;1086061;54;20002;-80
2023/05/01 10:37:41;;;;;;;;;;;;;;;16.42;46.80;99674.09;1086243;54;19942;-82
2023/05/01 10:38:53;;;;;;;;;;;;;;;16.55;47.14;99679.63;1086704;54;19943;-81
2023/05/01 10:39:57;;;;;;;;;;;;;;;16.59;46.60;99677.34;1087050;46;19958;-82
2023/05/01 10:41:02;;;;;;;;;;;;;;;16.62;46.70;99677.84;1086519;54;19949;-83
2023/05/01 10:42:04;;;;;;;;;;;;;;;16.46;46.64;99675.38;1086654;54;19965;-82
2023/05/01 10:43:19;;;;;;;;;;;;;;;16.59;46.93;99671.97;1086709;54;19950;-82
2023/05/01 10:44:22;;;;;;;;;;;;;;;16.81;46.73;99678.19;1086587;54;19946;-81
2023/05/01 10:45:34;;;;;;;;;;;;;;;16.87;46.19;99666.63;1086633;54;19942;-81
2023/05/01 10:46:43;;;;;;;;;;;;;;;16.86;45.82;99670.34;1086734;54;19949;-79
2023/05/01 10:47:46;;;;;;;;;;;;;;;16.72;45.41;99673.97;1086670;54;19943;-79
2023/05/01 10:48:59;;;;;;;;;;;;;;;16.73;46.00;99664.81;1086755;54;19949;-80
2023/05/01 10:50:05;;;;;;;;;;;;;;;16.83;45.91;99668.88;1086729;54;19999;-80
2023/05/01 10:51:11;;;;;;;;;;;;;;;16.93;45.80;99665.00;1086582;54;19950;-82
2023/05/01 10:52:15;;;;;;;;;;;;;;;16.91;45.36;99662.47;1086725;54;19957;-82
2023/05/01 10:53:16;;;;;;;;;;;;;;;16.91;45.46;99661.66;1086648;54;19973;-81
2023/05/01 10:54:32;;;;;;;;;;;;;;;16.90;45.47;99660.84;1086702;54;19943;-81
2023/05/01 10:55:34;;;;;;;;;;;;;;;16.83;45.48;99665.31;1086727;54;19966;-81
2023/05/01 10:56:44;;;;;;;;;;;;;;;16.73;45.87;99662.13;1086648;54;19942;-80
2023/05/01 10:57:45;;;;;;;;;;;;;;;16.89;45.55;99658.31;1086660;54;19943;-79
2023/05/01 10:58:56;;;;;;;;;;;;;;;16.98;45.28;99662.56;1086558;54;19942;-81
2023/05/01 11:00:13;;;;;;;;;;;;;;;17.05;45.14;99655.34;1086726;54;19957;-82
2023/05/01 11:01:27;;;;;;;;;;;;;;;17.17;45.26;99663.75;1086642;54;19942;-81
2023/05/01 11:02:31;;;;;;;;;;;;;;;17.12;44.49;99661.66;1086661;54;19954;-81
2023/05/01 11:03:39;;;;;;;;;;;;;;;17.23;44.92;99656.75;1086694;54;19973;-82
2023/05/01 11:04:55;;;;;;;;;;;;;;;17.08;44.58;99656.84;1086646;54;19965;-82
2023/05/01 11:06:07;;;;;;;;;;;;;;;16.98;44.79;99657.16;1086671;54;19942;-84
2023/05/01 11:07:19;;;;;;;;;;;;;;;16.94;45.23;99661.31;1086594;54;19991;-82
2023/05/01 11:08:30;;;;;;;;;;;;;;;16.93;45.10;99655.06;1087276;47;19942;-80
2023/05/01 11:09:43;;;;;;;;;;;;;;;16.98;45.23;99659.88;1086903;54;19954;-78
2023/05/01 11:10:44;;;;;;;;;;;;;;;16.96;45.15;99654.69;1086654;54;19949;-80
2023/05/01 11:11:51;;;;;;;;;;;;;;;16.99;44.94;99654.28;1087610;39;20593;-82
2023/05/01 11:12:53;;;;;;;;;;;;;;;16.94;45.02;99656.72;1086681;54;19943;-81
2023/05/01 11:13:57;;;;;;;;;;;;;;;16.84;45.16;99664.31;1087367;47;19947;-79
2023/05/01 11:15:03;;;;;;;;;;;;;;;16.92;45.23;99660.63;1086823;54;19943;-82
2023/05/01 11:16:21;;;;;;;;;;;;;;;16.94;45.58;99658.59;1086739;47;19965;-80
2023/05/01 11:17:40;;;;;;;;;;;;;;;16.99;45.35;99658.84;1086790;54;19943;-80
2023/05/01 11:18:47;;;;;;;;;;;;;;;17.02;44.97;99657.59;1086932;54;19943;-76
2023/05/01 11:19:49;;;;;;;;;;;;;;;17.04;44.95;99655.56;1086897;54;19949;-83
2023/05/01 11:20:57;;;;;;;;;;;;;;;17.06;45.25;99653.50;1086871;54;20533;-85
2023/05/01 11:21:59;;;;;;;;;;;;;;;17.04;44.80;99651.00;1086955;54;19950;-83
2023/05/01 11:23:03;;;;;;;;;;;;;;;17.08;45.00;99656.84;1086963;54;19942;-84
2023/05/01 11:24:08;;;;;;;;;;;;;;;17.09;44.85;99653.94;1086836;54;19998;-85
2023/05/01 11:25:19;;;;;;;;;;;;;;;17.15;44.91;99646.91;1086911;54;20018;-83
2023/05/01 11:26:24;;;;;;;;;;;;;;;17.07;44.86;99641.66;1087480;47;19966;-83
2023/05/01 11:27:25;;;;;;;;;;;;;;;16.87;44.85;99645.03;1086689;54;19966;-84
2023/05/01 11:28:32;;;;;;;;;;;;;;;16.87;45.21;99642.31;1086790;54;20665;-85
2023/05/01 11:29:34;;;;;;;;;;;;;;;17.10;45.30;99643.94;1087206;54;19942;-83
2023/05/01 11:30:39;;;;;;;;;;;;;;;17.25;44.67;99649.25;1086951;54;19962;-82
2023/05/01 11:31:40;;;;;;;;;;;;;;;17.30;44.84;99639.53;1086966;54;19942;-80
2023/05/01 11:32:45;;;;;;;;;;;;;;;17.36;44.44;99643.28;1086826;54;20023;-80
2023/05/01 11:33:49;;;;;;;;;;;;;;;17.12;44.78;99639.19;1086847;54;19943;-82
2023/05/01 11:34:50;;;;;;;;;;;;;;;17.02;44.82;99641.41;1086936;54;20578;-81
2023/05/01 11:36:07;;;;;;;;;;;;;;;16.96;45.42;99638.47;1086765;54;19942;-81
2023/05/01 11:37:08;;;;;;;;;;;;;;;16.95;45.45;99642.19;1086688;54;20644;-81
2023/05/01 11:38:18;;;;;;;;;;;;;;;16.99;45.17;99637.25;1086597;54;19942;-81
2023/05/01 11:39:22;;;;;;;;;;;;;;;17.11;45.37;99634.81;1086665;54;19965;-84
2023/05/01 11:40:26;;;;;;;;;;;;;;;17.14;45.15;99637.97;1086668;54;19994;-82
2023/05/01 11:41:30;;;;;;;;;;;;;;;17.02;44.95;99636.00;1086635;54;19994;-82
2023/05/01 11:42:31;;;;;;;;;;;;;;;17.08;45.50;99640.63;1086707;54;19942;-80
2023/05/01 11:43:35;;;;;;;;;;;;;;;17.08;44.96;99635.25;1086664;54;19965;-80
2023/05/01 11:44:36;;;;;;;;;;;;;;;17.08;45.28;99641.47;1086646;54;19949;-79
2023/05/01 11:45:40;;;;;;;;;;;;;;;17.14;45.09;99639.84;1086554;54;19942;-79
2023/05/01 11:46:41;;;;;;;;;;;;;;;17.10;44.87;99634.00;1086492;54;19955;-81
2023/05/01 11:47:45;;;;;;;;;;;;;;;17.12;44.97;99636.50;1086124;54;19947;-76
2023/05/01 11:48:48;;;;;;;;;;;;;;;17.13;45.32;99628.22;1085717;54;19951;-79
2023/05/01 11:50:13;;;;;;;;;;;;;;;17.12;45.35;99623.00;1085866;54;19942;-79
2023/05/01 11:51:17;;;;;;;;;;;;;;;17.26;45.22;99632.00;1087038;47;19947;-81
2023/05/01 11:52:19;;;;;;;;;;;;;;;17.29;44.89;99632.44;1088586;39;20144;-82
2023/05/01 11:53:24;;;;;;;;;;;;;;;17.35;45.12;99624.59;1087081;54;19943;-81
2023/05/01 11:54:25;;;;;;;;;;;;;;;17.37;44.65;99633.34;1086930;54;19942;-78
2023/05/01 11:55:37;;;;;;;;;;;;;;;17.23;44.52;99630.53;1086140;54;19978;-78
2023/05/01 11:56:39;;;;;;;;;;;;;;;17.26;44.61;99622.06;1086805;54;19970;-80
2023/05/01 11:57:49;;;;;;;;;;;;;;;17.35;44.80;99624.59;1086764;54;19950;-80
2023/05/01 11:58:57;;;;;;;;;;;;;;;17.46;44.96;99624.03;1087071;54;20574;-80
2023/05/01 11:59:59;;;;;;;;;;;;;;;17.50;44.60;99617.19;1086926;54;19954;-80
2023/05/01 12:01:06;;;;;;;;;;;;;;;17.59;44.37;99629.47;1086944;54;20046;-81
2023/05/01 12:02:17;;;;;;;;;;;;;;;17.66;44.50;99634.09;1087643;39;20562;-79
2023/05/01 12:03:22;;;;;;;;;;;;;;;17.67;44.39;99624.94;1087523;39;20248;-79
2023/05/01 12:04:27;;;;;;;;;;;;;;;17.61;44.28;99615.78;1087066;54;19942;-81
2023/05/01 12:05:34;;;;;;;;;;;;;;;17.55;43.87;99625.53;1087026;54;19964;-79
2023/05/01 12:06:43;;;;;;;;;;;;;;;17.56;43.92;99620.94;1087011;54;19966;-80
2023/05/01 12:07:45;;;;;;;;;;;;;;;17.56;44.04;99623.66;1087051;47;19943;-79
2023/05/01 12:08:52;;;;;;;;;;;;;;;17.60;43.99;99620.34;1087374;46;19965;-79
2023/05/01 12:09:55;;;;;;;;;;;;;;;17.62;43.82;99615.56;1087064;46;19943;-79
2023/05/01 12:11:05;;;;;;;;;;;;;;;17.65;43.59;99617.03;1086981;54;19946;-79
2023/05/01 12:12:11;;;;;;;;;;;;;;;17.71;43.78;99618.91;1087018;46;19965;-79
2023/05/01 12:13:13;;;;;;;;;;;;;;;17.76;43.72;99618.31;1086349;54;19943;-81
2023/05/01 12:14:18;;;;;;;;;;;;;;;17.79;43.42;99609.81;1086501;54;19949;-78
2023/05/01 12:15:20;;;;;;;;;;;;;;;17.83;43.60;99615.63;1086471;54;19943;-79
2023/05/01 12:16:24;;;;;;;;;;;;;;;17.88;43.32;99613.19;1086542;54;20041;-78
2023/05/01 12:17:27;;;;;;;;;;;;;;;17.98;43.69;99613.66;1086433;54;20323;-78
2023/05/01 12:18:32;;;;;;;;;;;;;;;18.09;43.29;99612.22;1086437;54;20030;-80
2023/05/01 12:19:34;;;;;;;;;;;;;;;18.10;42.95;99613.88;1086485;54;19946;-79
2023/05/01 12:20:43;;;;;;;;;;;;;;;18.18;43.04;99608.28;1086422;54;19943;-79
2023/05/01 12:21:45;;;;;;;;;;;;;;;18.18;42.45;99610.97;1086501;54;19942;-79
2023/05/01 12:22:54;;;;;;;;;;;;;;;18.19;42.69;99609.94;1086454;54;19946;-79
2023/05/01 12:24:00;;;;;;;;;;;;;;;18.24;42.81;99610.16;1086577;54;19943;-78
2023/05/01 12:25:03;;;;;;;;;;;;;;;18.26;42.82;99614.53;1086509;54;19943;-79
2023/05/01 12:26:22;;;;;;;;;;;;;;;18.18;43.14;99608.28;1086497;54;20030;-80
2023/05/01 12:27:24;;;;;;;;;;;;;;;17.77;43.44;99609.16;1086561;54;19942;-79
2023/05/01 12:28:29;;;;;;;;;;;;;;;17.64;44.05;99609.97;1086464;54;20299;-78
2023/05/01 12:29:39;;;;;;;;;;;;;;;17.87;43.43;99611.50;1086554;54;19999;-80
2023/05/01 12:30:45;;;;;;;;;;;;;;;18.00;43.43;99611.56;1086559;54;19995;-81
2023/05/01 12:31:48;;;;;;;;;;;;;;;17.93;43.36;99611.53;1086572;54;19942;-80
2023/05/01 12:32:53;;;;;;;;;;;;;;;18.02;43.69;99601.38;1086564;54;19943;-80
2023/05/01 12:33:57;;;;;;;;;;;;;;;18.13;43.74;99609.94;1086537;54;19973;-84
2023/05/01 12:35:02;;;;;;;;;;;;;;;18.23;43.23;99597.66;1086650;54;19942;-84
2023/05/01 12:36:14;;;;;;;;;;;;;;;18.22;42.69;99604.13;1086750;54;19954;-86
2023/05/01 12:37:19;;;;;;;;;;;;;;;18.15;42.79;99603.28;1086662;54;19942;-81
2023/05/01 12:38:23;;;;;;;;;;;;;;;18.33;42.80;99609.94;1086942;54;19943;-83
2023/05/01 12:39:29;;;;;;;;;;;;;;;18.38;42.63;99602.88;1087031;54;19942;-84
2023/05/01 12:40:30;;;;;;;;;;;;;;;18.43;42.29;99610.38;1087029;54;19986;-82
2023/05/01 12:41:39;;;;;;;;;;;;;;;18.42;42.77;99608.72;1087623;46;19984;-84
2023/05/01 12:42:41;;;;;;;;;;;;;;;18.35;42.58;99610.59;1087071;54;19965;-84
2023/05/01 12:43:46;;;;;;;;;;;;;;;18.30;42.38;99607.69;1087005;54;20006;-85
2023/05/01 12:44:57;;;;;;;;;;;;;;;18.31;42.86;99602.06;1086861;54;19940;-83
2023/05/01 12:46:03;;;;;;;;;;;;;;;18.31;42.58;99609.34;1086905;54;20379;-83
2023/05/01 12:47:06;;;;;;;;;;;;;;;18.37;42.59;99608.50;1086857;54;19943;-87
2023/05/01 12:48:16;;;;;;;;;;;;;;;18.37;42.41;99605.81;1086926;54;19943;-84
2023/05/01 12:49:22;;;;;;;;;;;;;;;18.45;42.76;99613.72;1088242;46;19943;-84
2023/05/01 12:50:24;;;;;;;;;;;;;;;18.43;42.38;99607.69;1087081;47;19942;-86
2023/05/01 12:51:30;;;;;;;;;;;;;;;18.31;42.23;99612.06;1087697;46;19949;-85
2023/05/01 12:52:33;;;;;;;;;;;;;;;18.24;42.54;99610.16;1087203;54;19954;-84
2023/05/01 12:53:46;;;;;;;;;;;;;;;18.18;42.69;99605.56;1087072;54;19943;-85
2023/05/01 12:54:50;;;;;;;;;;;;;;;18.22;42.53;99606.84;1087115;54;19943;-85
2023/05/01 12:55:56;;;;;;;;;;;;;;;18.17;42.46;99606.63;1087902;39;20147;-85
2023/05/01 12:57:13;;;;;;;;;;;;;;;18.12;42.63;99606.41;1086983;47;19945;-82
2023/05/01 12:58:16;;;;;;;;;;;;;;;18.08;42.39;99608.69;1087196;46;19942;-84
2023/05/01 12:59:25;;;;;;;;;;;;;;;18.12;42.69;99608.25;1086985;54;20277;-85
2023/05/01 13:00:28;;;;;;;;;;;;;;;18.15;42.50;99603.28;1086948;54;19977;-84
2023/05/01 13:01:33;;;;;;;;;;;;;;;18.13;42.37;99599.97;1087454;46;19942;-84
2023/05/01 13:02:36;;;;;;;;;;;;;;;18.18;42.45;99596.63;1087173;54;19961;-86
2023/05/01 13:03:45;;;;;;;;;;;;;;;18.20;42.15;99605.38;1086871;54;19946;-83
2023/05/01 13:04:52;;;;;;;;;;;;;;;18.27;42.25;99603.53;1088622;39;20159;-83
2023/05/01 13:05:55;;;;;;;;;;;;;;;18.31;41.99;99606.66;1086730;46;19965;-83
2023/05/01 13:07:04;;;;;;;;;;;;;;;18.35;41.66;99602.47;1086509;54;19972;-83
2023/05/01 13:08:07;;;;;;;;;;;;;;;18.34;41.78;99598.09;1086474;54;19969;-84
2023/05/01 13:09:14;;;;;;;;;;;;;;;18.30;41.57;99599.56;1086578;54;19989;-82
2023/05/01 13:10:31;;;;;;;;;;;;;;;18.31;41.61;99604.75;1087327;46;19942;-87
2023/05/01 13:11:35;;;;;;;;;;;;;;;18.27;41.44;99594.56;1086500;54;19977;-84
2023/05/01 13:12:45;;;;;;;;;;;;;;;18.28;41.44;99601.63;1086506;54;19954;-82
2023/05/01 13:13:49;;;;;;;;;;;;;;;18.23;41.10;99594.97;1086554;54;19943;-85
2023/05/01 13:14:51;;;;;;;;;;;;;;;18.32;41.92;99605.59;1086510;54;19949;-87
2023/05/01 13:15:55;;;;;;;;;;;;;;;18.27;41.41;99608.09;1086448;54;19973;-84
2023/05/01 13:16:56;;;;;;;;;;;;;;;18.29;41.18;99606.00;1086549;54;19966;-83
2023/05/01 13:18:05;;;;;;;;;;;;;;;18.27;41.06;99599.97;1086580;54;19950;-83
2023/05/01 13:19:09;;;;;;;;;;;;;;;18.14;40.79;99598.91;1086561;54;19942;-85
2023/05/01 13:20:12;;;;;;;;;;;;;;;18.15;41.40;99600.56;1086663;54;19943;-83
2023/05/01 13:21:17;;;;;;;;;;;;;;;18.17;41.03;99600.38;1086520;54;19949;-84
2023/05/01 13:22:20;;;;;;;;;;;;;;;18.19;41.19;99604.53;1086524;54;19958;-83
2023/05/01 13:23:24;;;;;;;;;;;;;;;18.16;41.06;99598.72;1086554;54;19943;-84
2023/05/01 13:24:34;;;;;;;;;;;;;;;18.14;41.48;99600.78;1086585;54;19943;-85
2023/05/01 13:25:38;;;;;;;;;;;;;;;18.10;41.38;99594.97;1086486;54;19949;-83
2023/05/01 13:26:39;;;;;;;;;;;;;;;18.10;41.42;99603.06;1086562;54;20018;-84
2023/05/01 13:27:52;;;;;;;;;;;;;;;17.97;41.67;99603.03;1086657;54;19949;-82
2023/05/01 13:28:53;;;;;;;;;;;;;;;17.81;41.96;99598.78;1086632;54;19939;-83
2023/05/01 13:29:59;;;;;;;;;;;;;;;17.82;42.16;99598.59;1086497;54;19939;-85
2023/05/01 13:31:00;;;;;;;;;;;;;;;17.86;42.18;99602.53;1086592;54;19973;-85
2023/05/01 13:32:06;;;;;;;;;;;;;;;17.77;41.73;99596.50;1086632;54;20855;-84
2023/05/01 13:33:09;;;;;;;;;;;;;;;17.79;41.99;99601.69;1086609;54;20057;-86
2023/05/01 13:34:17;;;;;;;;;;;;;;;17.64;41.85;99601.03;1086491;54;19949;-86
2023/05/01 13:35:22;;;;;;;;;;;;;;;17.57;41.53;99601.00;1086534;54;19977;-85
2023/05/01 13:36:27;;;;;;;;;;;;;;;17.50;41.55;99609.06;1086549;54;19938;-83